sensor_id;sensor_type;location;lat;lon;timestamp;P1;durP1;ratioP1;P2;durP2;ratioP2
42186;SDS011;27858;51.414;0.018;2024-02-16T00:02:05;6.22;;;2.80;;
42186;SDS011;27858;51.414;0.018;2024-02-16T00:04:31;2.47;;;2.05;;
42186;SDS011;27858;51.414;0.018;2024-02-16T00:07:00;7.03;;;2.42;;
42186;SDS011;27858;51.414;0.018;2024-02-16T00:09:27;2.60;;;1.83;;
42186;SDS011;27858;51.414;0.018;2024-02-16T00:11:54;4.85;;;2.17;;
42186;SDS011;27858;51.414;0.018;2024-02-16T00:14:21;3.30;;;1.95;;
42186;SDS011;27858;51.414;0.018;2024-02-16T00:16:48;2.75;;;2.03;;
42186;SDS011;27858;51.414;0.018;2024-02-16T00:19:15;6.60;;;2.63;;
42186;SDS011;27858;51.414;0.018;2024-02-16T00:21:42;5.65;;;1.60;;
42186;SDS011;27858;51.414;0.018;2024-02-16T00:24:09;4.93;;;1.92;;
42186;SDS011;27858;51.414;0.018;2024-02-16T00:26:37;4.57;;;1.98;;
42186;SDS011;27858;51.414;0.018;2024-02-16T00:29:06;6.47;;;2.35;;
42186;SDS011;27858;51.414;0.018;2024-02-16T00:31:33;1.92;;;1.60;;
42186;SDS011;27858;51.414;0.018;2024-02-16T00:34:00;5.22;;;2.20;;
42186;SDS011;27858;51.414;0.018;2024-02-16T00:36:27;3.65;;;1.98;;
42186;SDS011;27858;51.414;0.018;2024-02-16T00:38:55;5.25;;;2.22;;
42186;SDS011;27858;51.414;0.018;2024-02-16T00:41:23;3.63;;;2.53;;
42186;SDS011;27858;51.414;0.018;2024-02-16T00:43:50;3.08;;;2.10;;
42186;SDS011;27858;51.414;0.018;2024-02-16T00:46:18;2.80;;;1.63;;
42186;SDS011;27858;51.414;0.018;2024-02-16T00:48:45;3.33;;;1.70;;
42186;SDS011;27858;51.414;0.018;2024-02-16T00:51:13;2.78;;;1.65;;
42186;SDS011;27858;51.414;0.018;2024-02-16T00:53:40;2.97;;;1.67;;
42186;SDS011;27858;51.414;0.018;2024-02-16T00:56:07;2.50;;;2.03;;
42186;SDS011;27858;51.414;0.018;2024-02-16T00:58:35;4.78;;;2.05;;
42186;SDS011;27858;51.414;0.018;2024-02-16T01:01:03;5.20;;;1.80;;
42186;SDS011;27858;51.414;0.018;2024-02-16T01:03:31;4.53;;;2.60;;
42186;SDS011;27858;51.414;0.018;2024-02-16T01:08:33;10.63;;;2.03;;
42186;SDS011;27858;51.414;0.018;2024-02-16T01:11:01;4.03;;;1.77;;
42186;SDS011;27858;51.414;0.018;2024-02-16T01:13:29;5.28;;;1.90;;
42186;SDS011;27858;51.414;0.018;2024-02-16T01:15:57;5.00;;;2.13;;
42186;SDS011;27858;51.414;0.018;2024-02-16T01:18:25;8.93;;;2.95;;
42186;SDS011;27858;51.414;0.018;2024-02-16T01:20:55;7.05;;;2.53;;
42186;SDS011;27858;51.414;0.018;2024-02-16T01:23:22;4.55;;;1.65;;
42186;SDS011;27858;51.414;0.018;2024-02-16T01:25:51;4.20;;;2.22;;
42186;SDS011;27858;51.414;0.018;2024-02-16T01:28:18;4.60;;;2.50;;
42186;SDS011;27858;51.414;0.018;2024-02-16T01:30:49;6.35;;;2.88;;
42186;SDS011;27858;51.414;0.018;2024-02-16T01:33:19;4.18;;;2.67;;
42186;SDS011;27858;51.414;0.018;2024-02-16T01:35:47;4.10;;;2.33;;
42186;SDS011;27858;51.414;0.018;2024-02-16T01:38:15;3.45;;;2.20;;
42186;SDS011;27858;51.414;0.018;2024-02-16T01:40:43;3.08;;;2.58;;
42186;SDS011;27858;51.414;0.018;2024-02-16T01:43:10;7.03;;;2.53;;
42186;SDS011;27858;51.414;0.018;2024-02-16T01:45:37;5.82;;;2.60;;
42186;SDS011;27858;51.414;0.018;2024-02-16T01:48:05;2.35;;;2.08;;
42186;SDS011;27858;51.414;0.018;2024-02-16T01:50:33;3.72;;;2.13;;
42186;SDS011;27858;51.414;0.018;2024-02-16T01:53:03;7.65;;;2.35;;
42186;SDS011;27858;51.414;0.018;2024-02-16T01:55:31;3.65;;;2.30;;
42186;SDS011;27858;51.414;0.018;2024-02-16T01:57:58;3.45;;;2.20;;
42186;SDS011;27858;51.414;0.018;2024-02-16T02:00:26;4.20;;;2.95;;
42186;SDS011;27858;51.414;0.018;2024-02-16T02:02:53;2.65;;;2.38;;
42186;SDS011;27858;51.414;0.018;2024-02-16T02:05:20;5.20;;;3.08;;
42186;SDS011;27858;51.414;0.018;2024-02-16T02:07:47;6.10;;;2.28;;
42186;SDS011;27858;51.414;0.018;2024-02-16T02:10:14;6.82;;;2.75;;
42186;SDS011;27858;51.414;0.018;2024-02-16T02:12:42;4.50;;;2.63;;
42186;SDS011;27858;51.414;0.018;2024-02-16T02:15:09;3.47;;;2.63;;
42186;SDS011;27858;51.414;0.018;2024-02-16T02:17:37;4.53;;;2.92;;
42186;SDS011;27858;51.414;0.018;2024-02-16T02:20:05;7.05;;;3.13;;
42186;SDS011;27858;51.414;0.018;2024-02-16T02:22:37;5.18;;;3.03;;
42186;SDS011;27858;51.414;0.018;2024-02-16T02:25:04;5.43;;;2.95;;
42186;SDS011;27858;51.414;0.018;2024-02-16T02:27:31;7.68;;;4.07;;
42186;SDS011;27858;51.414;0.018;2024-02-16T02:29:59;8.52;;;3.05;;
42186;SDS011;27858;51.414;0.018;2024-02-16T02:32:26;7.53;;;3.08;;
42186;SDS011;27858;51.414;0.018;2024-02-16T02:34:53;5.10;;;2.85;;
42186;SDS011;27858;51.414;0.018;2024-02-16T02:37:20;4.80;;;3.13;;
42186;SDS011;27858;51.414;0.018;2024-02-16T02:39:46;6.43;;;3.28;;
42186;SDS011;27858;51.414;0.018;2024-02-16T02:42:13;6.28;;;2.72;;
42186;SDS011;27858;51.414;0.018;2024-02-16T02:44:40;7.00;;;3.50;;
42186;SDS011;27858;51.414;0.018;2024-02-16T02:47:09;5.57;;;3.45;;
42186;SDS011;27858;51.414;0.018;2024-02-16T02:49:35;4.70;;;2.90;;
42186;SDS011;27858;51.414;0.018;2024-02-16T02:52:02;3.42;;;2.42;;
42186;SDS011;27858;51.414;0.018;2024-02-16T02:54:30;5.00;;;2.50;;
42186;SDS011;27858;51.414;0.018;2024-02-16T02:56:57;6.45;;;3.63;;
42186;SDS011;27858;51.414;0.018;2024-02-16T02:59:24;4.28;;;3.33;;
42186;SDS011;27858;51.414;0.018;2024-02-16T03:01:51;8.07;;;3.83;;
42186;SDS011;27858;51.414;0.018;2024-02-16T03:04:18;4.72;;;3.05;;
42186;SDS011;27858;51.414;0.018;2024-02-16T03:06:44;4.68;;;3.00;;
42186;SDS011;27858;51.414;0.018;2024-02-16T03:09:12;5.45;;;3.17;;
42186;SDS011;27858;51.414;0.018;2024-02-16T03:11:39;5.97;;;3.40;;
42186;SDS011;27858;51.414;0.018;2024-02-16T03:14:06;11.40;;;3.28;;
42186;SDS011;27858;51.414;0.018;2024-02-16T03:16:32;6.07;;;3.33;;
42186;SDS011;27858;51.414;0.018;2024-02-16T03:18:59;6.85;;;3.55;;
42186;SDS011;27858;51.414;0.018;2024-02-16T03:21:26;7.00;;;3.60;;
42186;SDS011;27858;51.414;0.018;2024-02-16T03:23:53;3.90;;;2.63;;
42186;SDS011;27858;51.414;0.018;2024-02-16T03:26:20;6.72;;;3.15;;
42186;SDS011;27858;51.414;0.018;2024-02-16T03:28:47;4.07;;;2.78;;
42186;SDS011;27858;51.414;0.018;2024-02-16T03:31:18;4.80;;;2.85;;
42186;SDS011;27858;51.414;0.018;2024-02-16T03:33:47;3.50;;;2.25;;
42186;SDS011;27858;51.414;0.018;2024-02-16T03:36:15;6.63;;;2.88;;
42186;SDS011;27858;51.414;0.018;2024-02-16T03:38:43;7.13;;;3.28;;
42186;SDS011;27858;51.414;0.018;2024-02-16T03:41:13;2.60;;;2.10;;
42186;SDS011;27858;51.414;0.018;2024-02-16T03:43:42;4.25;;;2.65;;
42186;SDS011;27858;51.414;0.018;2024-02-16T03:46:09;5.35;;;2.83;;
42186;SDS011;27858;51.414;0.018;2024-02-16T03:48:36;3.38;;;2.55;;
42186;SDS011;27858;51.414;0.018;2024-02-16T03:51:05;5.10;;;2.90;;
42186;SDS011;27858;51.414;0.018;2024-02-16T03:53:32;6.63;;;2.67;;
42186;SDS011;27858;51.414;0.018;2024-02-16T03:56:00;6.32;;;2.97;;
42186;SDS011;27858;51.414;0.018;2024-02-16T03:58:27;6.88;;;2.92;;
42186;SDS011;27858;51.414;0.018;2024-02-16T04:00:53;5.78;;;2.90;;
42186;SDS011;27858;51.414;0.018;2024-02-16T04:03:21;5.15;;;2.95;;
42186;SDS011;27858;51.414;0.018;2024-02-16T04:05:48;4.90;;;3.17;;
42186;SDS011;27858;51.414;0.018;2024-02-16T04:08:14;6.07;;;3.60;;
42186;SDS011;27858;51.414;0.018;2024-02-16T04:10:41;4.35;;;3.03;;
42186;SDS011;27858;51.414;0.018;2024-02-16T04:13:08;6.85;;;3.58;;
42186;SDS011;27858;51.414;0.018;2024-02-16T04:15:35;8.30;;;3.60;;
42186;SDS011;27858;51.414;0.018;2024-02-16T04:18:02;3.85;;;2.53;;
42186;SDS011;27858;51.414;0.018;2024-02-16T04:20:29;5.18;;;3.67;;
42186;SDS011;27858;51.414;0.018;2024-02-16T04:22:56;3.90;;;3.22;;
42186;SDS011;27858;51.414;0.018;2024-02-16T04:25:23;3.13;;;2.78;;
42186;SDS011;27858;51.414;0.018;2024-02-16T04:27:50;4.18;;;3.33;;
42186;SDS011;27858;51.414;0.018;2024-02-16T04:30:17;4.85;;;2.83;;
42186;SDS011;27858;51.414;0.018;2024-02-16T04:32:44;6.57;;;3.80;;
42186;SDS011;27858;51.414;0.018;2024-02-16T04:35:10;6.85;;;3.10;;
42186;SDS011;27858;51.414;0.018;2024-02-16T04:37:38;4.38;;;2.92;;
42186;SDS011;27858;51.414;0.018;2024-02-16T04:40:08;8.52;;;3.60;;
42186;SDS011;27858;51.414;0.018;2024-02-16T04:42:38;3.08;;;2.30;;
42186;SDS011;27858;51.414;0.018;2024-02-16T04:45:07;6.00;;;3.88;;
42186;SDS011;27858;51.414;0.018;2024-02-16T04:47:37;3.70;;;2.40;;
42186;SDS011;27858;51.414;0.018;2024-02-16T04:50:04;2.88;;;2.50;;
42186;SDS011;27858;51.414;0.018;2024-02-16T04:52:37;3.10;;;2.05;;
42186;SDS011;27858;51.414;0.018;2024-02-16T04:55:07;3.53;;;2.20;;
42186;SDS011;27858;51.414;0.018;2024-02-16T04:57:34;3.55;;;2.20;;
42186;SDS011;27858;51.414;0.018;2024-02-16T05:00:02;3.05;;;1.98;;
42186;SDS011;27858;51.414;0.018;2024-02-16T05:02:30;3.88;;;2.92;;
42186;SDS011;27858;51.414;0.018;2024-02-16T05:04:57;2.47;;;2.28;;
42186;SDS011;27858;51.414;0.018;2024-02-16T05:07:28;3.17;;;2.37;;
42186;SDS011;27858;51.414;0.018;2024-02-16T05:09:57;2.17;;;1.58;;
42186;SDS011;27858;51.414;0.018;2024-02-16T05:12:25;3.67;;;1.88;;
42186;SDS011;27858;51.414;0.018;2024-02-16T05:14:53;2.25;;;2.00;;
42186;SDS011;27858;51.414;0.018;2024-02-16T05:17:20;2.58;;;1.90;;
42186;SDS011;27858;51.414;0.018;2024-02-16T05:19:49;2.78;;;2.10;;
42186;SDS011;27858;51.414;0.018;2024-02-16T05:22:15;2.65;;;1.88;;
42186;SDS011;27858;51.414;0.018;2024-02-16T05:24:44;1.55;;;1.23;;
42186;SDS011;27858;51.414;0.018;2024-02-16T05:27:11;2.05;;;1.50;;
42186;SDS011;27858;51.414;0.018;2024-02-16T05:29:38;2.88;;;1.90;;
42186;SDS011;27858;51.414;0.018;2024-02-16T05:32:05;2.60;;;1.40;;
42186;SDS011;27858;51.414;0.018;2024-02-16T05:34:32;2.25;;;2.00;;
42186;SDS011;27858;51.414;0.018;2024-02-16T05:37:04;3.85;;;1.70;;
42186;SDS011;27858;51.414;0.018;2024-02-16T05:39:33;5.78;;;1.73;;
42186;SDS011;27858;51.414;0.018;2024-02-16T05:42:09;2.80;;;2.00;;
42186;SDS011;27858;51.414;0.018;2024-02-16T05:44:36;1.85;;;1.70;;
42186;SDS011;27858;51.414;0.018;2024-02-16T05:47:03;2.35;;;2.15;;
42186;SDS011;27858;51.414;0.018;2024-02-16T05:49:30;2.05;;;1.77;;
42186;SDS011;27858;51.414;0.018;2024-02-16T05:51:57;2.55;;;2.22;;
42186;SDS011;27858;51.414;0.018;2024-02-16T05:54:43;2.70;;;2.50;;
42186;SDS011;27858;51.414;0.018;2024-02-16T05:57:14;3.78;;;2.38;;
42186;SDS011;27858;51.414;0.018;2024-02-16T06:02:14;2.97;;;1.95;;
42186;SDS011;27858;51.414;0.018;2024-02-16T06:04:41;4.70;;;1.80;;
42186;SDS011;27858;51.414;0.018;2024-02-16T06:07:08;2.13;;;1.50;;
42186;SDS011;27858;51.414;0.018;2024-02-16T06:09:36;1.55;;;1.45;;
42186;SDS011;27858;51.414;0.018;2024-02-16T06:12:04;1.45;;;1.20;;
42186;SDS011;27858;51.414;0.018;2024-02-16T06:14:31;1.40;;;1.25;;
42186;SDS011;27858;51.414;0.018;2024-02-16T06:16:58;1.00;;;0.80;;
42186;SDS011;27858;51.414;0.018;2024-02-16T06:19:25;1.15;;;1.05;;
42186;SDS011;27858;51.414;0.018;2024-02-16T06:21:53;1.48;;;1.13;;
42186;SDS011;27858;51.414;0.018;2024-02-16T06:24:23;3.05;;;1.58;;
42186;SDS011;27858;51.414;0.018;2024-02-16T06:26:50;1.42;;;0.90;;
42186;SDS011;27858;51.414;0.018;2024-02-16T06:29:22;1.13;;;1.00;;
42186;SDS011;27858;51.414;0.018;2024-02-16T06:31:49;3.53;;;1.30;;
42186;SDS011;27858;51.414;0.018;2024-02-16T06:34:17;0.90;;;0.70;;
42186;SDS011;27858;51.414;0.018;2024-02-16T06:36:46;1.75;;;1.30;;
42186;SDS011;27858;51.414;0.018;2024-02-16T06:42:29;3.58;;;0.93;;
42186;SDS011;27858;51.414;0.018;2024-02-16T06:44:57;0.95;;;0.90;;
42186;SDS011;27858;51.414;0.018;2024-02-16T06:47:24;3.45;;;1.10;;
42186;SDS011;27858;51.414;0.018;2024-02-16T06:49:52;1.63;;;1.13;;
42186;SDS011;27858;51.414;0.018;2024-02-16T06:52:19;3.38;;;1.23;;
42186;SDS011;27858;51.414;0.018;2024-02-16T06:54:46;1.23;;;1.02;;
42186;SDS011;27858;51.414;0.018;2024-02-16T06:57:13;1.02;;;0.80;;
42186;SDS011;27858;51.414;0.018;2024-02-16T06:59:40;1.23;;;1.05;;
42186;SDS011;27858;51.414;0.018;2024-02-16T07:02:07;1.00;;;0.93;;
42186;SDS011;27858;51.414;0.018;2024-02-16T07:04:39;2.38;;;0.93;;
42186;SDS011;27858;51.414;0.018;2024-02-16T07:07:06;1.27;;;0.88;;
42186;SDS011;27858;51.414;0.018;2024-02-16T07:09:34;1.95;;;1.00;;
42186;SDS011;27858;51.414;0.018;2024-02-16T07:12:02;1.88;;;1.13;;
42186;SDS011;27858;51.414;0.018;2024-02-16T07:14:29;4.13;;;0.90;;
42186;SDS011;27858;51.414;0.018;2024-02-16T07:16:56;1.30;;;1.20;;
42186;SDS011;27858;51.414;0.018;2024-02-16T07:19:23;1.30;;;0.80;;
42186;SDS011;27858;51.414;0.018;2024-02-16T07:21:51;5.75;;;0.90;;
42186;SDS011;27858;51.414;0.018;2024-02-16T07:24:18;5.80;;;1.10;;
42186;SDS011;27858;51.414;0.018;2024-02-16T07:26:45;1.25;;;1.13;;
42186;SDS011;27858;51.414;0.018;2024-02-16T07:29:12;1.05;;;0.88;;
42186;SDS011;27858;51.414;0.018;2024-02-16T07:31:43;5.25;;;1.20;;
42186;SDS011;27858;51.414;0.018;2024-02-16T07:34:10;1.33;;;1.05;;
42186;SDS011;27858;51.414;0.018;2024-02-16T07:36:38;1.00;;;0.90;;
42186;SDS011;27858;51.414;0.018;2024-02-16T07:39:05;1.85;;;1.42;;
42186;SDS011;27858;51.414;0.018;2024-02-16T07:41:32;0.90;;;0.80;;
42186;SDS011;27858;51.414;0.018;2024-02-16T07:43:59;1.55;;;1.20;;
42186;SDS011;27858;51.414;0.018;2024-02-16T07:46:28;6.45;;;3.03;;
42186;SDS011;27858;51.414;0.018;2024-02-16T07:48:57;2.60;;;1.80;;
42186;SDS011;27858;51.414;0.018;2024-02-16T07:51:24;5.07;;;2.15;;
42186;SDS011;27858;51.414;0.018;2024-02-16T07:53:51;2.15;;;1.42;;
42186;SDS011;27858;51.414;0.018;2024-02-16T07:56:18;2.17;;;1.38;;
42186;SDS011;27858;51.414;0.018;2024-02-16T07:58:46;2.40;;;1.48;;
42186;SDS011;27858;51.414;0.018;2024-02-16T08:01:13;4.88;;;1.48;;
42186;SDS011;27858;51.414;0.018;2024-02-16T08:03:42;3.70;;;1.98;;
42186;SDS011;27858;51.414;0.018;2024-02-16T08:06:09;2.00;;;1.45;;
42186;SDS011;27858;51.414;0.018;2024-02-16T08:08:36;1.55;;;1.15;;
42186;SDS011;27858;51.414;0.018;2024-02-16T08:11:03;1.55;;;1.05;;
42186;SDS011;27858;51.414;0.018;2024-02-16T08:13:31;3.22;;;1.23;;
42186;SDS011;27858;51.414;0.018;2024-02-16T08:15:59;3.20;;;1.65;;
42186;SDS011;27858;51.414;0.018;2024-02-16T08:18:26;3.90;;;1.30;;
42186;SDS011;27858;51.414;0.018;2024-02-16T08:20:53;2.10;;;1.13;;
42186;SDS011;27858;51.414;0.018;2024-02-16T08:23:20;2.85;;;1.77;;
42186;SDS011;27858;51.414;0.018;2024-02-16T08:25:47;4.00;;;1.75;;
42186;SDS011;27858;51.414;0.018;2024-02-16T08:28:14;3.00;;;2.05;;
42186;SDS011;27858;51.414;0.018;2024-02-16T08:30:42;5.65;;;2.28;;
42186;SDS011;27858;51.414;0.018;2024-02-16T08:33:11;5.80;;;2.22;;
42186;SDS011;27858;51.414;0.018;2024-02-16T08:35:41;5.88;;;2.63;;
42186;SDS011;27858;51.414;0.018;2024-02-16T08:38:08;4.25;;;2.50;;
42186;SDS011;27858;51.414;0.018;2024-02-16T08:40:38;5.47;;;2.67;;
42186;SDS011;27858;51.414;0.018;2024-02-16T08:43:05;7.07;;;2.28;;
42186;SDS011;27858;51.414;0.018;2024-02-16T08:45:33;7.30;;;2.05;;
42186;SDS011;27858;51.414;0.018;2024-02-16T08:48:00;9.35;;;2.63;;
42186;SDS011;27858;51.414;0.018;2024-02-16T08:50:28;6.88;;;2.20;;
42186;SDS011;27858;51.414;0.018;2024-02-16T08:52:55;9.05;;;3.58;;
42186;SDS011;27858;51.414;0.018;2024-02-16T08:55:22;5.90;;;2.58;;
42186;SDS011;27858;51.414;0.018;2024-02-16T08:57:49;5.88;;;2.38;;
42186;SDS011;27858;51.414;0.018;2024-02-16T09:00:17;14.02;;;3.40;;
42186;SDS011;27858;51.414;0.018;2024-02-16T09:02:45;8.57;;;2.10;;
42186;SDS011;27858;51.414;0.018;2024-02-16T09:05:14;10.45;;;3.17;;
42186;SDS011;27858;51.414;0.018;2024-02-16T09:07:41;6.47;;;3.50;;
42186;SDS011;27858;51.414;0.018;2024-02-16T09:10:09;6.30;;;2.15;;
42186;SDS011;27858;51.414;0.018;2024-02-16T09:12:36;7.82;;;2.85;;
42186;SDS011;27858;51.414;0.018;2024-02-16T09:15:04;7.13;;;2.45;;
42186;SDS011;27858;51.414;0.018;2024-02-16T09:17:32;12.30;;;3.88;;
42186;SDS011;27858;51.414;0.018;2024-02-16T09:19:59;5.40;;;2.55;;
42186;SDS011;27858;51.414;0.018;2024-02-16T09:22:30;6.20;;;3.35;;
42186;SDS011;27858;51.414;0.018;2024-02-16T09:25:00;4.43;;;2.40;;
42186;SDS011;27858;51.414;0.018;2024-02-16T09:27:28;12.02;;;3.92;;
42186;SDS011;27858;51.414;0.018;2024-02-16T09:29:57;6.88;;;2.65;;
42186;SDS011;27858;51.414;0.018;2024-02-16T09:32:24;5.47;;;2.65;;
42186;SDS011;27858;51.414;0.018;2024-02-16T09:34:51;4.95;;;2.72;;
42186;SDS011;27858;51.414;0.018;2024-02-16T09:37:20;5.05;;;2.45;;
42186;SDS011;27858;51.414;0.018;2024-02-16T09:39:46;13.00;;;3.63;;
42186;SDS011;27858;51.414;0.018;2024-02-16T09:42:15;9.70;;;2.47;;
42186;SDS011;27858;51.414;0.018;2024-02-16T09:44:44;5.53;;;2.88;;
42186;SDS011;27858;51.414;0.018;2024-02-16T09:47:12;7.80;;;2.78;;
42186;SDS011;27858;51.414;0.018;2024-02-16T09:49:42;10.10;;;3.97;;
42186;SDS011;27858;51.414;0.018;2024-02-16T09:52:10;8.43;;;2.58;;
42186;SDS011;27858;51.414;0.018;2024-02-16T09:54:40;8.55;;;2.83;;
42186;SDS011;27858;51.414;0.018;2024-02-16T09:57:09;8.70;;;2.47;;
42186;SDS011;27858;51.414;0.018;2024-02-16T09:59:36;7.78;;;3.00;;
42186;SDS011;27858;51.414;0.018;2024-02-16T10:02:08;5.10;;;2.47;;
42186;SDS011;27858;51.414;0.018;2024-02-16T10:04:36;12.57;;;3.63;;
42186;SDS011;27858;51.414;0.018;2024-02-16T10:07:03;7.18;;;2.67;;
42186;SDS011;27858;51.414;0.018;2024-02-16T10:09:38;5.55;;;2.88;;
42186;SDS011;27858;51.414;0.018;2024-02-16T10:12:06;8.52;;;3.78;;
42186;SDS011;27858;51.414;0.018;2024-02-16T10:14:34;16.77;;;3.25;;
42186;SDS011;27858;51.414;0.018;2024-02-16T10:17:01;6.57;;;2.80;;
42186;SDS011;27858;51.414;0.018;2024-02-16T10:19:29;6.85;;;3.00;;
42186;SDS011;27858;51.414;0.018;2024-02-16T10:22:09;6.70;;;2.35;;
42186;SDS011;27858;51.414;0.018;2024-02-16T10:24:38;6.75;;;3.25;;
42186;SDS011;27858;51.414;0.018;2024-02-16T10:27:06;6.35;;;2.60;;
42186;SDS011;27858;51.414;0.018;2024-02-16T10:29:44;11.57;;;2.95;;
42186;SDS011;27858;51.414;0.018;2024-02-16T10:32:13;6.70;;;2.38;;
42186;SDS011;27858;51.414;0.018;2024-02-16T10:34:40;6.55;;;2.45;;
42186;SDS011;27858;51.414;0.018;2024-02-16T10:37:08;7.60;;;2.70;;
42186;SDS011;27858;51.414;0.018;2024-02-16T10:39:35;6.25;;;2.17;;
42186;SDS011;27858;51.414;0.018;2024-02-16T10:42:05;5.82;;;2.60;;
42186;SDS011;27858;51.414;0.018;2024-02-16T10:44:34;11.30;;;3.35;;
42186;SDS011;27858;51.414;0.018;2024-02-16T10:47:03;5.07;;;2.45;;
42186;SDS011;27858;51.414;0.018;2024-02-16T10:49:31;13.73;;;3.80;;
42186;SDS011;27858;51.414;0.018;2024-02-16T10:51:58;8.38;;;2.35;;
42186;SDS011;27858;51.414;0.018;2024-02-16T10:54:27;13.85;;;2.60;;
42186;SDS011;27858;51.414;0.018;2024-02-16T10:56:57;4.10;;;2.15;;
42186;SDS011;27858;51.414;0.018;2024-02-16T10:59:25;4.90;;;1.60;;
42186;SDS011;27858;51.414;0.018;2024-02-16T11:02:01;7.28;;;3.10;;
42186;SDS011;27858;51.414;0.018;2024-02-16T11:04:37;5.47;;;1.75;;
42186;SDS011;27858;51.414;0.018;2024-02-16T11:07:12;4.30;;;1.58;;
42186;SDS011;27858;51.414;0.018;2024-02-16T11:09:43;6.50;;;2.70;;
42186;SDS011;27858;51.414;0.018;2024-02-16T11:12:12;9.38;;;2.33;;
42186;SDS011;27858;51.414;0.018;2024-02-16T11:14:43;3.63;;;1.80;;
42186;SDS011;27858;51.414;0.018;2024-02-16T11:17:12;3.70;;;1.38;;
42186;SDS011;27858;51.414;0.018;2024-02-16T11:19:43;7.45;;;1.60;;
42186;SDS011;27858;51.414;0.018;2024-02-16T11:22:14;7.25;;;1.77;;
42186;SDS011;27858;51.414;0.018;2024-02-16T11:24:46;2.20;;;1.15;;
42186;SDS011;27858;51.414;0.018;2024-02-16T11:27:15;3.38;;;1.40;;
42186;SDS011;27858;51.414;0.018;2024-02-16T11:29:46;4.00;;;1.20;;
42186;SDS011;27858;51.414;0.018;2024-02-16T11:32:14;7.53;;;1.85;;
42186;SDS011;27858;51.414;0.018;2024-02-16T11:34:41;6.95;;;1.40;;
42186;SDS011;27858;51.414;0.018;2024-02-16T11:37:08;2.55;;;1.17;;
42186;SDS011;27858;51.414;0.018;2024-02-16T11:39:35;4.28;;;1.75;;
42186;SDS011;27858;51.414;0.018;2024-02-16T11:42:11;5.80;;;1.67;;
42186;SDS011;27858;51.414;0.018;2024-02-16T11:44:40;2.25;;;1.27;;
42186;SDS011;27858;51.414;0.018;2024-02-16T11:47:25;3.05;;;1.50;;
42186;SDS011;27858;51.414;0.018;2024-02-16T11:50:08;3.58;;;1.42;;
42186;SDS011;27858;51.414;0.018;2024-02-16T11:52:39;4.07;;;1.67;;
42186;SDS011;27858;51.414;0.018;2024-02-16T11:55:07;4.05;;;2.17;;
42186;SDS011;27858;51.414;0.018;2024-02-16T11:57:35;2.13;;;1.00;;
42186;SDS011;27858;51.414;0.018;2024-02-16T12:00:03;5.50;;;1.13;;
42186;SDS011;27858;51.414;0.018;2024-02-16T12:02:34;4.13;;;1.35;;
42186;SDS011;27858;51.414;0.018;2024-02-16T12:05:04;4.40;;;1.08;;
42186;SDS011;27858;51.414;0.018;2024-02-16T12:07:32;1.75;;;1.20;;
42186;SDS011;27858;51.414;0.018;2024-02-16T12:10:03;1.75;;;1.00;;
42186;SDS011;27858;51.414;0.018;2024-02-16T12:12:32;3.85;;;1.05;;
42186;SDS011;27858;51.414;0.018;2024-02-16T12:15:00;3.10;;;1.67;;
42186;SDS011;27858;51.414;0.018;2024-02-16T12:17:27;1.92;;;1.23;;
42186;SDS011;27858;51.414;0.018;2024-02-16T12:19:54;3.30;;;1.25;;
42186;SDS011;27858;51.414;0.018;2024-02-16T12:22:21;3.13;;;1.45;;
42186;SDS011;27858;51.414;0.018;2024-02-16T12:24:49;1.83;;;0.85;;
42186;SDS011;27858;51.414;0.018;2024-02-16T12:27:17;1.90;;;0.95;;
42186;SDS011;27858;51.414;0.018;2024-02-16T12:29:44;8.10;;;1.83;;
42186;SDS011;27858;51.414;0.018;2024-02-16T12:32:11;3.58;;;0.88;;
42186;SDS011;27858;51.414;0.018;2024-02-16T12:34:44;3.83;;;1.00;;
42186;SDS011;27858;51.414;0.018;2024-02-16T12:37:11;4.13;;;1.33;;
42186;SDS011;27858;51.414;0.018;2024-02-16T12:39:38;4.20;;;1.10;;
42186;SDS011;27858;51.414;0.018;2024-02-16T12:42:06;1.35;;;0.88;;
42186;SDS011;27858;51.414;0.018;2024-02-16T12:44:33;2.13;;;0.90;;
42186;SDS011;27858;51.414;0.018;2024-02-16T12:47:00;2.85;;;1.02;;
42186;SDS011;27858;51.414;0.018;2024-02-16T12:49:27;2.05;;;0.95;;
42186;SDS011;27858;51.414;0.018;2024-02-16T12:51:54;6.13;;;1.45;;
42186;SDS011;27858;51.414;0.018;2024-02-16T12:54:21;1.30;;;1.10;;
42186;SDS011;27858;51.414;0.018;2024-02-16T12:56:48;0.50;;;0.50;;
42186;SDS011;27858;51.414;0.018;2024-02-16T12:59:16;4.18;;;1.00;;
42186;SDS011;27858;51.414;0.018;2024-02-16T13:01:43;2.00;;;1.00;;
42186;SDS011;27858;51.414;0.018;2024-02-16T13:04:10;5.82;;;1.23;;
42186;SDS011;27858;51.414;0.018;2024-02-16T13:06:39;1.88;;;1.00;;
42186;SDS011;27858;51.414;0.018;2024-02-16T13:09:06;2.13;;;1.10;;
42186;SDS011;27858;51.414;0.018;2024-02-16T13:11:34;7.82;;;1.67;;
42186;SDS011;27858;51.414;0.018;2024-02-16T13:14:01;3.33;;;0.98;;
42186;SDS011;27858;51.414;0.018;2024-02-16T13:16:28;1.10;;;0.80;;
42186;SDS011;27858;51.414;0.018;2024-02-16T13:18:55;1.90;;;0.82;;
42186;SDS011;27858;51.414;0.018;2024-02-16T13:21:22;1.35;;;0.70;;
42186;SDS011;27858;51.414;0.018;2024-02-16T13:23:49;2.10;;;0.68;;
42186;SDS011;27858;51.414;0.018;2024-02-16T13:26:16;2.22;;;1.20;;
42186;SDS011;27858;51.414;0.018;2024-02-16T13:28:43;2.25;;;0.85;;
42186;SDS011;27858;51.414;0.018;2024-02-16T13:31:10;1.70;;;0.90;;
42186;SDS011;27858;51.414;0.018;2024-02-16T13:33:37;2.97;;;0.80;;
42186;SDS011;27858;51.414;0.018;2024-02-16T13:36:05;1.40;;;0.85;;
42186;SDS011;27858;51.414;0.018;2024-02-16T13:38:32;1.58;;;0.85;;
42186;SDS011;27858;51.414;0.018;2024-02-16T13:40:59;2.55;;;1.10;;
42186;SDS011;27858;51.414;0.018;2024-02-16T13:43:26;1.98;;;1.10;;
42186;SDS011;27858;51.414;0.018;2024-02-16T13:45:53;2.95;;;1.17;;
42186;SDS011;27858;51.414;0.018;2024-02-16T13:48:22;2.13;;;1.40;;
42186;SDS011;27858;51.414;0.018;2024-02-16T13:50:49;4.03;;;2.25;;
42186;SDS011;27858;51.414;0.018;2024-02-16T13:53:17;1.80;;;0.93;;
42186;SDS011;27858;51.414;0.018;2024-02-16T13:55:47;10.32;;;1.52;;
42186;SDS011;27858;51.414;0.018;2024-02-16T13:58:15;4.72;;;1.30;;
42186;SDS011;27858;51.414;0.018;2024-02-16T14:00:42;3.33;;;1.23;;
42186;SDS011;27858;51.414;0.018;2024-02-16T14:03:10;4.32;;;1.20;;
42186;SDS011;27858;51.414;0.018;2024-02-16T14:05:38;2.03;;;1.15;;
42186;SDS011;27858;51.414;0.018;2024-02-16T14:08:05;3.28;;;1.30;;
42186;SDS011;27858;51.414;0.018;2024-02-16T14:10:36;2.55;;;1.20;;
42186;SDS011;27858;51.414;0.018;2024-02-16T14:13:03;5.05;;;1.10;;
42186;SDS011;27858;51.414;0.018;2024-02-16T14:15:30;2.88;;;1.15;;
42186;SDS011;27858;51.414;0.018;2024-02-16T14:17:58;1.70;;;0.82;;
42186;SDS011;27858;51.414;0.018;2024-02-16T14:20:36;2.38;;;0.95;;
42186;SDS011;27858;51.414;0.018;2024-02-16T14:23:03;1.52;;;0.90;;
42186;SDS011;27858;51.414;0.018;2024-02-16T14:25:33;1.27;;;0.80;;
42186;SDS011;27858;51.414;0.018;2024-02-16T14:28:03;1.08;;;0.90;;
42186;SDS011;27858;51.414;0.018;2024-02-16T14:30:30;1.90;;;1.23;;
42186;SDS011;27858;51.414;0.018;2024-02-16T14:32:59;3.45;;;0.90;;
42186;SDS011;27858;51.414;0.018;2024-02-16T14:35:26;2.75;;;1.02;;
42186;SDS011;27858;51.414;0.018;2024-02-16T14:37:53;2.35;;;1.08;;
42186;SDS011;27858;51.414;0.018;2024-02-16T14:40:20;1.17;;;0.80;;
42186;SDS011;27858;51.414;0.018;2024-02-16T14:42:46;2.38;;;1.08;;
42186;SDS011;27858;51.414;0.018;2024-02-16T14:45:13;2.17;;;0.55;;
42186;SDS011;27858;51.414;0.018;2024-02-16T14:47:47;1.05;;;0.60;;
42186;SDS011;27858;51.414;0.018;2024-02-16T14:50:15;2.97;;;0.80;;
42186;SDS011;27858;51.414;0.018;2024-02-16T14:52:42;2.85;;;0.77;;
42186;SDS011;27858;51.414;0.018;2024-02-16T14:55:10;5.40;;;0.80;;
42186;SDS011;27858;51.414;0.018;2024-02-16T14:57:40;5.82;;;0.93;;
42186;SDS011;27858;51.414;0.018;2024-02-16T15:00:08;0.98;;;0.70;;
42186;SDS011;27858;51.414;0.018;2024-02-16T15:02:38;1.65;;;0.40;;